Aeroporto :
LOGIN :

Iscrizione | Disclaimer

   EN    FR    IT 

 










Sommario :    VFR   VFR Marginale   IFR   IFR Intensivo   IFR Molto Intensivo
Visibilità : 
Base nubi : 
>= 8 km
>= 3000ft
5 / 8 km
1000 / 3000 ft
1500m / 5 km
500 / 1000 ft
800 / 1500m
200 / 500 ft
< 800m
< 200 ft
Simboli :   Temporali  Nebbia  Neve Forte  Precipitazioni Forti  Vento > 20 kt
SIGMETs :   Varie  Temporali  Ghiacco  Turbolenza  Onda orograficha  Ceneri Vulcaniche






- Altitudine del aeroporto : 157 ft
- Codice IATA : LIL


LFQQ - Lille Lesquin

ULTIMO METAR :
  • 212130Z AUTO 22006KT 8000 OVC005 13/12 Q1020 TEMPO 4000 RADZ

METARs OBSOLETI :
  • 212100Z AUTO 19007KT 9999 BKN007 OVC023 13/12 Q1020 TEMPO 4000 RADZ BECMG 27010KT
  • 212030Z AUTO 17007KT 9999 SCT009 OVC022 13/12 Q1019 TEMPO 4000 RADZ BKN008 OVC030 BECMG 27010KT
  • 212000Z AUTO 20006KT 9999 SCT009 SCT014 BKN024 13/12 Q1019 TEMPO 4000 RADZ BKN008 OVC030
  • 211930Z AUTO 21006KT 9999 BKN012 BKN021 BKN028 13/11 Q1019 TEMPO 4000 RADZ BKN008 OVC030

TAF TAF LFQQ
Valido dal 21 a 18 ore il 23 a 00 ore UTC


211700Z 2118/2224 20004KT 9999 BKN018 OVC030
TEMPO 2118/2124 4000 RADZ BKN008 OVC030
BECMG 2122/2124 27010KT
TEMPO 2200/2206 2000 DZ OVC003
BECMG 2206/2208 21005KT
PROB40
TEMPO 2206/2210 3000 BR BKN003
TEMPO 2210/2213 BKN011
ATIS : +33 3 20 16 19 54



MetMap, La meteo Aeronautica in un colpo d'occhio ! - Copyright ORBIFLY Dicembre 2007 - Disclaimer

ORBIFLY MET'MAP TEAM :

Programmazione e sviluppo : Alexandra Zaïnal
Concezione e sviluppo : Baudouin d'Aumeries
Co-Programmazione e sviluppo : Marc-Olivier Méhu
Supporto tecnico e logistico : Manuel Goepfert
Aiuto per la traduzione : Arnaldo La Scala

Contatto : metmap@orbifly.com




FONTI E CREDITI :

   NOAA